sensor_id;sensor_type;location;lat;lon;timestamp;temperature;humidity
15298;DHT22;7750;48.796;9.026;2023-04-15T02:15:01;8.10;58.10
15298;DHT22;7750;48.796;9.026;2023-04-15T03:22:13;7.40;59.10
15298;DHT22;7750;48.796;9.026;2023-04-15T03:44:58;7.30;59.90
15298;DHT22;7750;48.796;9.026;2023-04-15T03:56:01;7.20;59.60
15298;DHT22;7750;48.796;9.026;2023-04-15T04:47:11;6.70;60.50
15298;DHT22;7750;48.796;9.026;2023-04-15T05:04:33;6.70;61.60
15298;DHT22;7750;48.796;9.026;2023-04-15T05:16:06;6.80;61.80
15298;DHT22;7750;48.796;9.026;2023-04-15T05:21:38;6.80;61.90
15298;DHT22;7750;48.796;9.026;2023-04-15T05:33:20;6.70;62.40
15298;DHT22;7750;48.796;9.026;2023-04-15T07:08:13;10.20;64.80
15298;DHT22;7750;48.796;9.026;2023-04-15T07:13:14;10.60;64.80
15298;DHT22;7750;48.796;9.026;2023-04-15T07:18:15;11.00;64.60
15298;DHT22;7750;48.796;9.026;2023-04-15T07:23:15;11.50;64.00
15298;DHT22;7750;48.796;9.026;2023-04-15T07:28:16;11.90;63.50
15298;DHT22;7750;48.796;9.026;2023-04-15T07:33:17;12.30;64.50
15298;DHT22;7750;48.796;9.026;2023-04-15T07:38:17;13.00;64.20
15298;DHT22;7750;48.796;9.026;2023-04-15T07:43:18;13.60;62.40
15298;DHT22;7750;48.796;9.026;2023-04-15T07:48:20;14.10;60.30
15298;DHT22;7750;48.796;9.026;2023-04-15T07:53:21;14.40;59.40
15298;DHT22;7750;48.796;9.026;2023-04-15T07:58:21;14.70;58.90
15298;DHT22;7750;48.796;9.026;2023-04-15T08:03:22;15.00;58.10
15298;DHT22;7750;48.796;9.026;2023-04-15T08:08:23;15.40;58.10
15298;DHT22;7750;48.796;9.026;2023-04-15T08:13:25;15.90;57.40
15298;DHT22;7750;48.796;9.026;2023-04-15T08:18:25;16.20;56.00
15298;DHT22;7750;48.796;9.026;2023-04-15T08:23:26;16.30;57.10
15298;DHT22;7750;48.796;9.026;2023-04-15T08:28:26;16.20;55.30
15298;DHT22;7750;48.796;9.026;2023-04-15T08:33:27;16.20;54.90
15298;DHT22;7750;48.796;9.026;2023-04-15T08:38:28;16.00;54.80
15298;DHT22;7750;48.796;9.026;2023-04-15T08:43:33;15.90;54.60
15298;DHT22;7750;48.796;9.026;2023-04-15T08:48:37;16.00;54.20
15298;DHT22;7750;48.796;9.026;2023-04-15T08:53:46;16.10;54.00
15298;DHT22;7750;48.796;9.026;2023-04-15T08:59:54;16.10;54.10
15298;DHT22;7750;48.796;9.026;2023-04-15T09:05:43;16.20;53.20
15298;DHT22;7750;48.796;9.026;2023-04-15T09:11:23;16.20;52.40
15298;DHT22;7750;48.796;9.026;2023-04-15T09:17:01;16.20;53.70
15298;DHT22;7750;48.796;9.026;2023-04-15T09:22:34;16.30;54.10
15298;DHT22;7750;48.796;9.026;2023-04-15T09:28:08;16.30;54.50
15298;DHT22;7750;48.796;9.026;2023-04-15T10:01:50;16.80;51.50
15298;DHT22;7750;48.796;9.026;2023-04-15T11:06:43;17.40;51.10
15298;DHT22;7750;48.796;9.026;2023-04-15T11:17:07;17.40;50.40
15298;DHT22;7750;48.796;9.026;2023-04-15T11:22:11;17.40;49.50
15298;DHT22;7750;48.796;9.026;2023-04-15T11:38:41;17.60;50.40
15298;DHT22;7750;48.796;9.026;2023-04-15T11:44:00;17.60;48.40
15298;DHT22;7750;48.796;9.026;2023-04-15T11:49:35;17.70;47.10
15298;DHT22;7750;48.796;9.026;2023-04-15T11:54:40;17.70;48.30
15298;DHT22;7750;48.796;9.026;2023-04-15T12:12:17;18.20;48.70
15298;DHT22;7750;48.796;9.026;2023-04-15T12:17:22;18.30;48.50
15298;DHT22;7750;48.796;9.026;2023-04-15T12:22:52;18.30;46.70
15298;DHT22;7750;48.796;9.026;2023-04-15T12:27:59;18.40;46.10
15298;DHT22;7750;48.796;9.026;2023-04-15T12:44:54;18.60;49.10
15298;DHT22;7750;48.796;9.026;2023-04-15T14:15:47;17.40;44.30
15298;DHT22;7750;48.796;9.026;2023-04-15T14:21:06;17.20;44.30
15298;DHT22;7750;48.796;9.026;2023-04-15T14:31:46;16.90;45.50
15298;DHT22;7750;48.796;9.026;2023-04-15T14:53:08;16.50;46.00
15298;DHT22;7750;48.796;9.026;2023-04-15T14:58:10;16.40;46.60
15298;DHT22;7750;48.796;9.026;2023-04-15T15:03:11;16.30;47.20
15298;DHT22;7750;48.796;9.026;2023-04-15T15:08:12;16.20;47.30
15298;DHT22;7750;48.796;9.026;2023-04-15T15:13:13;16.10;47.90
15298;DHT22;7750;48.796;9.026;2023-04-15T15:18:15;15.90;48.00
15298;DHT22;7750;48.796;9.026;2023-04-15T15:23:16;15.80;48.50
15298;DHT22;7750;48.796;9.026;2023-04-15T15:28:16;15.70;48.60
15298;DHT22;7750;48.796;9.026;2023-04-15T15:33:17;15.70;49.00
15298;DHT22;7750;48.796;9.026;2023-04-15T15:38:21;15.60;49.30
15298;DHT22;7750;48.796;9.026;2023-04-15T15:43:22;15.60;49.30
15298;DHT22;7750;48.796;9.026;2023-04-15T15:48:22;15.50;49.10
15298;DHT22;7750;48.796;9.026;2023-04-15T15:53:23;15.40;48.70
15298;DHT22;7750;48.796;9.026;2023-04-15T15:58:25;15.30;48.90
15298;DHT22;7750;48.796;9.026;2023-04-15T16:03:25;15.30;49.20
15298;DHT22;7750;48.796;9.026;2023-04-15T16:08:26;15.30;49.50
15298;DHT22;7750;48.796;9.026;2023-04-15T16:13:27;15.30;49.70
15298;DHT22;7750;48.796;9.026;2023-04-15T16:18:27;15.20;50.00
15298;DHT22;7750;48.796;9.026;2023-04-15T16:23:28;15.20;50.40
15298;DHT22;7750;48.796;9.026;2023-04-15T16:28:29;15.10;50.80
15298;DHT22;7750;48.796;9.026;2023-04-15T16:33:29;15.10;51.50
15298;DHT22;7750;48.796;9.026;2023-04-15T16:38:30;15.00;52.20
15298;DHT22;7750;48.796;9.026;2023-04-15T16:43:31;14.90;52.90
15298;DHT22;7750;48.796;9.026;2023-04-15T16:48:32;14.90;53.50
15298;DHT22;7750;48.796;9.026;2023-04-15T16:53:33;14.80;54.10
15298;DHT22;7750;48.796;9.026;2023-04-15T16:58:34;14.70;54.50
15298;DHT22;7750;48.796;9.026;2023-04-15T17:03:34;14.60;55.90
15298;DHT22;7750;48.796;9.026;2023-04-15T17:08:36;14.50;55.80
15298;DHT22;7750;48.796;9.026;2023-04-15T17:13:37;14.40;56.40
15298;DHT22;7750;48.796;9.026;2023-04-15T17:18:38;14.30;56.90
15298;DHT22;7750;48.796;9.026;2023-04-15T17:23:38;14.20;57.20
15298;DHT22;7750;48.796;9.026;2023-04-15T17:28:39;14.10;57.60
15298;DHT22;7750;48.796;9.026;2023-04-15T17:33:39;14.00;58.60
15298;DHT22;7750;48.796;9.026;2023-04-15T17:38:41;13.90;58.20
15298;DHT22;7750;48.796;9.026;2023-04-15T17:43:42;13.90;58.80
15298;DHT22;7750;48.796;9.026;2023-04-15T17:48:42;13.70;60.30
15298;DHT22;7750;48.796;9.026;2023-04-15T17:53:43;13.70;59.50
15298;DHT22;7750;48.796;9.026;2023-04-15T17:58:44;13.50;60.30
15298;DHT22;7750;48.796;9.026;2023-04-15T18:03:44;13.50;60.70
15298;DHT22;7750;48.796;9.026;2023-04-15T18:08:45;13.40;62.20
15298;DHT22;7750;48.796;9.026;2023-04-15T18:13:46;13.20;63.70
15298;DHT22;7750;48.796;9.026;2023-04-15T18:18:46;13.10;64.10
15298;DHT22;7750;48.796;9.026;2023-04-15T18:23:47;12.90;64.30
15298;DHT22;7750;48.796;9.026;2023-04-15T18:28:47;12.80;63.90
15298;DHT22;7750;48.796;9.026;2023-04-15T18:33:48;12.70;64.80
15298;DHT22;7750;48.796;9.026;2023-04-15T18:38:49;12.70;64.60
15298;DHT22;7750;48.796;9.026;2023-04-15T18:43:49;12.60;66.50
15298;DHT22;7750;48.796;9.026;2023-04-15T18:48:53;12.80;68.90
15298;DHT22;7750;48.796;9.026;2023-04-15T18:53:54;12.60;66.70
15298;DHT22;7750;48.796;9.026;2023-04-15T18:58:58;12.60;67.50
15298;DHT22;7750;48.796;9.026;2023-04-15T19:03:58;12.60;67.30
15298;DHT22;7750;48.796;9.026;2023-04-15T19:09:05;12.40;67.50
15298;DHT22;7750;48.796;9.026;2023-04-15T19:14:05;12.40;68.30
15298;DHT22;7750;48.796;9.026;2023-04-15T19:19:08;12.30;67.50
15298;DHT22;7750;48.796;9.026;2023-04-15T19:24:09;12.20;67.70
15298;DHT22;7750;48.796;9.026;2023-04-15T19:29:10;12.30;68.80
15298;DHT22;7750;48.796;9.026;2023-04-15T19:34:13;12.20;68.60
15298;DHT22;7750;48.796;9.026;2023-04-15T19:39:14;12.20;68.90
15298;DHT22;7750;48.796;9.026;2023-04-15T19:44:15;12.10;69.70
15298;DHT22;7750;48.796;9.026;2023-04-15T19:49:17;12.10;70.30
15298;DHT22;7750;48.796;9.026;2023-04-15T19:54:18;12.00;69.70
15298;DHT22;7750;48.796;9.026;2023-04-15T19:59:19;12.00;70.20
15298;DHT22;7750;48.796;9.026;2023-04-15T20:04:19;12.00;71.60
15298;DHT22;7750;48.796;9.026;2023-04-15T20:09:20;11.90;71.80
15298;DHT22;7750;48.796;9.026;2023-04-15T20:14:21;11.90;71.50
15298;DHT22;7750;48.796;9.026;2023-04-15T20:19:22;11.80;72.70
15298;DHT22;7750;48.796;9.026;2023-04-15T20:24:22;11.80;72.00
15298;DHT22;7750;48.796;9.026;2023-04-15T20:29:26;11.70;72.30
15298;DHT22;7750;48.796;9.026;2023-04-15T20:34:27;11.70;73.30
15298;DHT22;7750;48.796;9.026;2023-04-15T20:39:28;11.70;73.40
15298;DHT22;7750;48.796;9.026;2023-04-15T20:49:42;11.60;73.40
15298;DHT22;7750;48.796;9.026;2023-04-15T20:54:48;11.60;73.50
15298;DHT22;7750;48.796;9.026;2023-04-15T21:00:13;11.60;74.30
15298;DHT22;7750;48.796;9.026;2023-04-15T21:05:47;11.60;75.50
15298;DHT22;7750;48.796;9.026;2023-04-15T21:10:47;11.60;74.30
15298;DHT22;7750;48.796;9.026;2023-04-15T21:15:48;11.60;74.00
15298;DHT22;7750;48.796;9.026;2023-04-15T21:20:57;11.50;74.20
15298;DHT22;7750;48.796;9.026;2023-04-15T21:25:58;11.60;75.20
15298;DHT22;7750;48.796;9.026;2023-04-15T21:31:04;11.50;74.60
15298;DHT22;7750;48.796;9.026;2023-04-15T21:36:34;11.60;75.10
15298;DHT22;7750;48.796;9.026;2023-04-15T21:41:35;11.50;77.10
15298;DHT22;7750;48.796;9.026;2023-04-15T21:46:41;11.40;75.30
15298;DHT22;7750;48.796;9.026;2023-04-15T21:57:29;11.40;76.10
15298;DHT22;7750;48.796;9.026;2023-04-15T22:02:50;11.40;76.40
15298;DHT22;7750;48.796;9.026;2023-04-15T22:30:19;11.30;78.10
15298;DHT22;7750;48.796;9.026;2023-04-15T22:35:26;11.30;77.70
15298;DHT22;7750;48.796;9.026;2023-04-15T22:40:48;11.30;77.70
15298;DHT22;7750;48.796;9.026;2023-04-15T22:51:25;11.30;77.50
15298;DHT22;7750;48.796;9.026;2023-04-15T22:56:50;11.30;78.20
15298;DHT22;7750;48.796;9.026;2023-04-15T23:08:56;11.30;79.30
15298;DHT22;7750;48.796;9.026;2023-04-15T23:14:22;11.30;79.30
15298;DHT22;7750;48.796;9.026;2023-04-15T23:26:31;11.20;79.30
15298;DHT22;7750;48.796;9.026;2023-04-15T23:31:32;11.20;79.30
15298;DHT22;7750;48.796;9.026;2023-04-15T23:37:00;11.20;79.50
15298;DHT22;7750;48.796;9.026;2023-04-15T23:42:32;11.20;79.80
15298;DHT22;7750;48.796;9.026;2023-04-15T23:53:26;11.20;78.90
15298;DHT22;7750;48.796;9.026;2023-04-15T23:58:31;11.20;79.00
